Etusivu
METAR-TAF:

METAR-TAF

Lentoasemat :

Franklin County, Vermont, Yhdysvallat

Leveyspiiri: 44-56-25N, Pituuspiiri: 073-05-51W, korkeus merenpinnasta: 69 m

Tämänhetkinen sää

Tämä raportti tehtiin 30 minuuttia sitten, kello 14.16 UTC
Tuuli 10 kn kaakosta
Lämpötila 8°C
Kosteus 87%
Ilmanpaine 1017 hPa
Näkyvyys: 11.3 km
Pilvistä 4400 ft:n korkeudessa
heikkoa sadetta

METAR: KFSO 291416Z AUTO 13010KT 7SM -RA OVC044 08/06 A3004 RMK AO2 T00800058

Aika: 10:46 (14:46 UTC)


TAF: puuttuu

Säähavainnot ja -ennusteet yli 4000 lentoasemalta (METAR- ja TAF-raportit).

Käytössä olevat sääasemat on merkitty karttaan keltaisilla ja punaisilla pisteillä.

Aseta hiiri pisteen päälle nähdäksesi sääaseman nimen.

Klikkaa sitten nähdäksesi säähavainnot ja -ennusteet.

Kartan vaihtaminen: klikkaa mustalla rastilla varustettuja vihreitä pisteitä, niin voit zoomata sisään; viivalla varustettua vihreää pistettä, niin voit zoomata ulos tai vihreitä nuolia, niin pääset viereisille kartoille.


METAR-TAF: